createdAt,value
2022-09-14T00:01:23.757Z,2.90
2022-09-14T00:03:46.078Z,2.78
2022-09-14T00:06:15.686Z,2.95
2022-09-14T00:08:43.194Z,2.83
2022-09-14T00:11:14.699Z,2.95
2022-09-14T00:13:46.830Z,3.42
2022-09-14T00:16:23.337Z,2.08
2022-09-14T00:18:55.267Z,2.47
2022-09-14T00:21:22.787Z,4.72
2022-09-14T00:23:49.851Z,2.80
2022-09-14T00:26:21.037Z,3.17
2022-09-14T00:28:50.344Z,2.10
2022-09-14T00:31:18.327Z,2.80
2022-09-14T00:33:47.571Z,4.18
2022-09-14T00:36:17.359Z,3.08
2022-09-14T00:38:45.762Z,3.17
2022-09-14T00:41:18.587Z,3.10
2022-09-14T00:43:54.807Z,3.05
2022-09-14T00:46:21.967Z,3.42
2022-09-14T00:48:48.732Z,3.03
2022-09-14T00:51:17.430Z,3.25
2022-09-14T00:53:45.517Z,3.78
2022-09-14T00:56:14.354Z,2.80
2022-09-14T00:58:43.349Z,2.38
2022-09-14T01:01:10.446Z,2.97
2022-09-14T01:03:37.343Z,3.05
2022-09-14T01:06:16.120Z,2.97
2022-09-14T01:09:10.327Z,2.67
2022-09-14T01:11:49.536Z,3.53
2022-09-14T01:14:24.104Z,2.70
2022-09-14T01:16:56.925Z,2.30
2022-09-14T01:19:42.676Z,2.28
2022-09-14T01:22:19.590Z,2.28
2022-09-14T01:24:52.742Z,4.07
2022-09-14T01:27:36.031Z,2.95
2022-09-14T01:30:07.268Z,2.70
2022-09-14T01:32:43.271Z,3.15
2022-09-14T01:35:28.707Z,3.70
2022-09-14T01:38:00.751Z,3.35
2022-09-14T01:40:33.661Z,4.03
2022-09-14T01:43:12.451Z,5.22
2022-09-14T01:45:43.989Z,4.70
2022-09-14T01:48:13.987Z,3.33
2022-09-14T01:50:45.282Z,3.90
2022-09-14T01:53:11.766Z,2.80
2022-09-14T01:55:51.011Z,2.90
2022-09-14T01:58:25.815Z,3.35
2022-09-14T02:00:55.149Z,3.65
2022-09-14T02:03:34.191Z,2.92
2022-09-14T02:06:21.721Z,3.38
2022-09-14T02:08:48.780Z,3.90
2022-09-14T02:11:15.373Z,3.65
2022-09-14T02:13:42.050Z,3.15
2022-09-14T02:16:08.803Z,3.08
2022-09-14T02:18:35.614Z,3.60
2022-09-14T02:21:09.242Z,3.50
2022-09-14T02:23:39.392Z,3.42
2022-09-14T02:26:06.376Z,5.07
2022-09-14T02:28:33.459Z,3.60
2022-09-14T02:31:25.906Z,3.83
2022-09-14T02:34:05.713Z,2.63
2022-09-14T02:36:49.554Z,2.90
2022-09-14T02:39:16.754Z,2.67
2022-09-14T02:41:53.582Z,2.78
2022-09-14T02:44:34.351Z,3.92
2022-09-14T02:47:24.140Z,2.90
2022-09-14T02:50:11.956Z,3.40
2022-09-14T02:53:11.189Z,3.53
2022-09-14T02:55:44.167Z,3.50
2022-09-14T02:58:13.079Z,5.70
2022-09-14T03:00:42.754Z,4.00
2022-09-14T03:03:11.803Z,3.75
2022-09-14T03:05:38.470Z,3.78
2022-09-14T03:08:05.808Z,3.20
2022-09-14T03:10:33.748Z,3.38
2022-09-14T03:13:00.664Z,4.50
2022-09-14T03:15:27.985Z,3.90
2022-09-14T03:17:54.705Z,4.93
2022-09-14T03:20:28.037Z,3.72
2022-09-14T03:22:55.022Z,4.22
2022-09-14T03:25:25.133Z,6.40
2022-09-14T03:27:53.778Z,4.60
2022-09-14T03:30:21.290Z,5.13
2022-09-14T03:32:48.654Z,6.65
2022-09-14T03:35:16.314Z,7.35
2022-09-14T03:37:44.730Z,6.00
2022-09-14T03:40:15.987Z,5.03
2022-09-14T03:42:48.734Z,5.28
2022-09-14T03:45:16.787Z,7.32
2022-09-14T03:47:43.773Z,10.73
2022-09-14T03:50:12.752Z,13.35
2022-09-14T03:52:39.971Z,7.68
2022-09-14T03:55:08.215Z,12.00
2022-09-14T03:57:35.330Z,12.55
2022-09-14T04:00:02.466Z,8.70
2022-09-14T04:02:29.895Z,6.30
2022-09-14T04:04:56.794Z,25.20
2022-09-14T04:07:23.872Z,20.30
2022-09-14T04:09:50.512Z,20.20
2022-09-14T04:12:17.183Z,10.25
2022-09-14T04:14:43.961Z,12.60
2022-09-14T04:17:10.642Z,21.05
2022-09-14T04:19:41.764Z,18.05
2022-09-14T04:22:08.851Z,11.63
2022-09-14T04:24:35.710Z,7.53
2022-09-14T04:27:02.301Z,11.85
2022-09-14T04:29:30.744Z,6.50
2022-09-14T04:31:58.429Z,12.65
2022-09-14T04:34:25.534Z,11.80
2022-09-14T04:36:52.307Z,8.40
2022-09-14T04:39:18.948Z,13.23
2022-09-14T04:41:45.942Z,12.77
2022-09-14T04:44:12.837Z,12.43
2022-09-14T04:46:46.014Z,12.20
2022-09-14T04:49:13.439Z,13.60
2022-09-14T04:51:40.103Z,21.98
2022-09-14T04:54:07.654Z,13.73
2022-09-14T04:56:37.170Z,14.23
2022-09-14T04:59:04.888Z,11.57
2022-09-14T05:01:40.686Z,13.57
2022-09-14T05:04:08.649Z,8.32
2022-09-14T05:06:38.518Z,10.20
2022-09-14T05:09:08.115Z,7.15
2022-09-14T05:11:36.124Z,12.43
2022-09-14T05:14:03.449Z,9.15
2022-09-14T05:16:33.605Z,9.68
2022-09-14T05:19:05.933Z,9.68
2022-09-14T05:21:34.806Z,8.80
2022-09-14T05:24:05.493Z,11.05
2022-09-14T05:26:32.722Z,6.63
2022-09-14T05:29:01.414Z,11.82
2022-09-14T05:31:30.141Z,8.20
2022-09-14T05:33:57.067Z,8.98
2022-09-14T05:36:24.503Z,8.75
2022-09-14T05:38:51.968Z,6.68
2022-09-14T05:41:18.859Z,16.30
2022-09-14T05:43:45.895Z,9.93
2022-09-14T05:46:19.650Z,12.40
2022-09-14T05:48:46.590Z,12.65
2022-09-14T05:51:23.826Z,9.30
2022-09-14T05:53:52.382Z,8.02
2022-09-14T05:56:21.045Z,7.60
2022-09-14T05:58:48.406Z,5.07
2022-09-14T06:01:18.525Z,7.15
2022-09-14T06:03:46.446Z,4.47
2022-09-14T06:06:15.235Z,6.88
2022-09-14T06:08:42.996Z,2.53
2022-09-14T06:11:13.229Z,4.95
2022-09-14T06:13:39.999Z,3.08
2022-09-14T06:16:12.008Z,3.83
2022-09-14T06:18:40.241Z,5.28
2022-09-14T06:21:09.280Z,5.40
2022-09-14T06:23:36.822Z,3.50
2022-09-14T06:26:05.314Z,2.63
2022-09-14T06:28:32.748Z,2.65
2022-09-14T06:31:00.249Z,4.30
2022-09-14T06:33:27.228Z,5.55
2022-09-14T06:35:59.061Z,2.90
2022-09-14T06:38:27.155Z,4.05
2022-09-14T06:41:03.086Z,3.42
2022-09-14T06:43:32.577Z,5.25
2022-09-14T06:46:06.799Z,4.50
2022-09-14T06:48:37.058Z,2.30
2022-09-14T06:51:24.948Z,2.63
2022-09-14T06:53:53.934Z,3.40
2022-09-14T06:56:21.345Z,4.85
2022-09-14T06:58:48.138Z,10.80
2022-09-14T07:01:16.768Z,6.60
2022-09-14T07:03:44.076Z,5.32
2022-09-14T07:06:16.835Z,6.18
2022-09-14T07:08:44.134Z,6.85
2022-09-14T07:11:12.455Z,2.72
2022-09-14T07:13:39.748Z,3.03
2022-09-14T07:16:08.209Z,4.10
2022-09-14T07:18:35.965Z,5.90
2022-09-14T07:21:07.416Z,5.00
2022-09-14T07:23:36.382Z,5.10
2022-09-14T07:26:18.765Z,3.22
2022-09-14T07:28:47.834Z,3.72
2022-09-14T07:31:16.493Z,2.90
2022-09-14T07:33:43.178Z,3.85
2022-09-14T07:36:11.725Z,3.00
2022-09-14T07:38:52.032Z,6.65
2022-09-14T07:41:20.870Z,9.85
2022-09-14T07:43:55.524Z,3.38
2022-09-14T07:46:23.350Z,4.53
2022-09-14T07:48:55.861Z,3.53
2022-09-14T07:51:23.839Z,2.45
2022-09-14T07:53:51.431Z,3.15
2022-09-14T07:56:18.068Z,6.72
2022-09-14T07:58:44.846Z,4.10
2022-09-14T08:01:18.046Z,4.88
2022-09-14T08:03:46.200Z,3.33
2022-09-14T08:06:18.281Z,4.18
2022-09-14T08:08:48.250Z,3.60
2022-09-14T08:11:20.606Z,5.30
2022-09-14T08:13:50.786Z,3.20
2022-09-14T08:16:19.163Z,4.13
2022-09-14T08:18:46.811Z,2.38
2022-09-14T08:21:16.160Z,4.55
2022-09-14T08:23:44.207Z,4.93
2022-09-14T08:26:10.820Z,6.05
2022-09-14T08:28:38.558Z,7.55
2022-09-14T08:31:11.471Z,3.10
2022-09-14T08:33:43.021Z,3.72
2022-09-14T08:36:11.736Z,4.13
2022-09-14T08:38:38.781Z,3.38
2022-09-14T08:41:17.643Z,3.28
2022-09-14T08:43:44.666Z,4.32
2022-09-14T08:46:27.479Z,3.47
2022-09-14T08:48:54.493Z,3.90
2022-09-14T08:51:21.368Z,5.00
2022-09-14T08:53:50.659Z,3.58
2022-09-14T08:56:32.525Z,5.13
2022-09-14T08:59:14.424Z,6.00
2022-09-14T09:02:08.216Z,7.05
2022-09-14T09:04:55.313Z,3.33
2022-09-14T09:07:24.814Z,7.20
2022-09-14T09:09:56.276Z,6.53
2022-09-14T09:12:44.254Z,7.13
2022-09-14T09:15:27.596Z,4.45
2022-09-14T09:17:59.746Z,7.55
2022-09-14T09:20:34.157Z,7.55
2022-09-14T09:23:13.871Z,3.60
2022-09-14T09:25:48.975Z,4.10
2022-09-14T09:28:17.243Z,5.20
2022-09-14T09:30:45.616Z,5.32
2022-09-14T09:33:17.339Z,6.28
2022-09-14T09:35:44.258Z,8.30
2022-09-14T09:38:16.029Z,5.78
2022-09-14T09:40:48.382Z,7.25
2022-09-14T09:43:28.942Z,6.22
2022-09-14T09:46:07.713Z,4.05
2022-09-14T09:48:43.654Z,5.90
2022-09-14T09:51:18.881Z,3.65
2022-09-14T09:53:52.094Z,5.15
2022-09-14T09:56:25.789Z,6.10
2022-09-14T09:58:52.666Z,5.97
2022-09-14T10:01:28.413Z,6.15
2022-09-14T10:04:07.298Z,6.05
2022-09-14T10:06:46.002Z,3.47
2022-09-14T10:09:21.100Z,2.95
2022-09-14T10:11:57.576Z,1.30
2022-09-14T10:14:33.449Z,4.30
2022-09-14T10:17:23.684Z,5.50
2022-09-14T10:19:53.983Z,5.15
2022-09-14T10:22:31.258Z,0.98
2022-09-14T10:24:58.001Z,3.40
2022-09-14T10:27:48.643Z,1.45
2022-09-14T10:30:19.810Z,4.55
2022-09-14T10:33:06.375Z,1.70
2022-09-14T10:35:46.664Z,3.38
2022-09-14T10:38:19.113Z,2.67
2022-09-14T10:40:50.314Z,3.15
2022-09-14T10:43:32.668Z,2.90
2022-09-14T10:46:04.843Z,3.10
2022-09-14T10:49:02.668Z,6.43
2022-09-14T10:52:16.634Z,2.90
2022-09-14T10:54:55.073Z,1.17
2022-09-14T10:57:43.382Z,0.75
2022-09-14T11:00:18.229Z,0.50
2022-09-14T11:03:10.937Z,0.40
2022-09-14T11:05:44.157Z,0.63
2022-09-14T11:08:36.702Z,2.35
2022-09-14T11:11:10.706Z,1.90
2022-09-14T11:13:46.084Z,2.67
2022-09-14T11:16:15.523Z,0.57
2022-09-14T11:18:51.531Z,1.25
2022-09-14T11:21:34.428Z,0.80
2022-09-14T11:24:24.330Z,0.20
2022-09-14T11:27:01.735Z,1.25
2022-09-14T11:29:53.495Z,1.30
2022-09-14T11:32:28.741Z,4.13
2022-09-14T11:35:02.187Z,2.53
2022-09-14T11:38:03.271Z,1.38
2022-09-14T11:40:35.172Z,1.23
2022-09-14T11:43:10.333Z,3.92
2022-09-14T11:45:43.843Z,1.00
2022-09-14T11:48:41.384Z,2.97
2022-09-14T11:51:12.323Z,0.30
2022-09-14T11:53:43.125Z,3.40
2022-09-14T11:56:29.074Z,2.15
2022-09-14T11:58:58.446Z,2.30
2022-09-14T12:01:27.016Z,1.90
2022-09-14T12:03:56.976Z,4.78
2022-09-14T12:06:35.940Z,0.75
2022-09-14T12:09:17.620Z,1.77
2022-09-14T12:11:45.676Z,1.92
2022-09-14T12:14:24.376Z,1.27
2022-09-14T12:20:20.859Z,4.78
2022-09-14T12:22:50.402Z,0.70
2022-09-14T12:25:20.068Z,2.15
2022-09-14T12:27:49.517Z,0.50
2022-09-14T12:30:41.414Z,0.20
2022-09-14T12:33:34.054Z,0.20
2022-09-14T12:36:11.677Z,1.13
2022-09-14T12:38:38.255Z,0.68
2022-09-14T12:41:10.641Z,1.20
2022-09-14T12:43:40.201Z,0.30
2022-09-14T12:46:22.476Z,1.95
2022-09-14T12:48:49.587Z,1.65
2022-09-14T12:51:31.660Z,4.72
2022-09-14T12:53:58.209Z,4.25
2022-09-14T12:56:33.827Z,2.05
2022-09-14T12:59:36.399Z,0.88
2022-09-14T13:02:33.998Z,3.70
2022-09-14T13:05:03.472Z,1.10
2022-09-14T13:07:36.174Z,1.60
2022-09-14T13:10:06.628Z,1.08
2022-09-14T13:12:36.308Z,0.85
2022-09-14T13:15:07.023Z,0.30
2022-09-14T13:17:33.794Z,7.53
2022-09-14T13:20:06.344Z,1.25
2022-09-14T13:22:33.476Z,0.35
2022-09-14T13:25:03.942Z,2.90
2022-09-14T13:27:34.629Z,6.57
2022-09-14T13:30:20.054Z,0.93
2022-09-14T13:32:50.944Z,0.35
2022-09-14T13:35:20.009Z,1.70
2022-09-14T13:37:48.462Z,2.08
2022-09-14T13:40:15.387Z,6.40
2022-09-14T13:42:42.301Z,0.30
2022-09-14T13:45:12.931Z,2.38
2022-09-14T13:47:40.029Z,0.95
2022-09-14T13:50:07.896Z,1.92
2022-09-14T13:53:02.015Z,6.13
2022-09-14T13:55:31.578Z,0.75
2022-09-14T13:58:05.565Z,1.80
2022-09-14T14:00:34.511Z,2.92
2022-09-14T14:03:04.296Z,0.85
2022-09-14T14:05:34.606Z,2.67
2022-09-14T14:08:04.869Z,3.65
2022-09-14T14:10:36.920Z,4.40
2022-09-14T14:13:04.279Z,1.30
2022-09-14T14:15:36.462Z,1.05
2022-09-14T14:18:35.341Z,1.58
2022-09-14T14:21:27.543Z,1.83
2022-09-14T14:24:27.923Z,2.15
2022-09-14T14:26:56.666Z,2.40
2022-09-14T14:29:24.165Z,5.07
2022-09-14T14:31:50.983Z,2.70
2022-09-14T14:34:23.869Z,2.60
2022-09-14T14:36:50.530Z,2.10
2022-09-14T14:39:21.090Z,6.32
2022-09-14T14:41:48.966Z,3.53
2022-09-14T14:44:22.654Z,6.65
2022-09-14T14:46:49.326Z,3.55
2022-09-14T14:49:18.535Z,4.75
2022-09-14T14:51:45.679Z,2.28
2022-09-14T14:54:13.024Z,9.88
2022-09-14T14:56:39.910Z,3.22
2022-09-14T14:59:21.720Z,2.45
2022-09-14T15:01:50.042Z,1.70
2022-09-14T15:04:16.975Z,3.60
2022-09-14T15:06:45.317Z,6.03
2022-09-14T15:09:23.984Z,1.80
2022-09-14T15:11:53.798Z,5.25
2022-09-14T15:14:26.540Z,5.50
2022-09-14T15:16:58.184Z,1.40
2022-09-14T15:19:25.433Z,1.95
2022-09-14T15:21:52.276Z,4.05
2022-09-14T15:24:19.029Z,4.70
2022-09-14T15:26:45.660Z,2.70
2022-09-14T15:29:18.211Z,5.55
2022-09-14T15:31:45.051Z,3.60
2022-09-14T15:34:11.815Z,1.65
2022-09-14T15:36:53.096Z,4.22
2022-09-14T15:39:26.466Z,2.78
2022-09-14T15:41:54.268Z,2.13
2022-09-14T15:44:20.893Z,4.57
2022-09-14T15:46:48.283Z,1.27
2022-09-14T15:49:21.488Z,3.35
2022-09-14T15:51:50.662Z,2.03
2022-09-14T15:54:19.184Z,1.80
2022-09-14T15:56:59.432Z,1.17
2022-09-14T15:59:27.276Z,3.40
2022-09-14T16:01:54.697Z,1.80
2022-09-14T16:04:22.134Z,4.93
2022-09-14T16:06:48.948Z,1.85
2022-09-14T16:09:17.232Z,3.05
2022-09-14T16:11:44.967Z,5.38
2022-09-14T16:14:11.864Z,1.75
2022-09-14T16:16:38.752Z,2.55
2022-09-14T16:19:11.685Z,5.80
2022-09-14T16:21:39.143Z,4.22
2022-09-14T16:24:08.370Z,5.07
2022-09-14T16:26:37.475Z,3.60
2022-09-14T16:29:05.688Z,3.92
2022-09-14T16:31:35.293Z,1.98
2022-09-14T16:34:06.226Z,1.73
2022-09-14T16:36:35.878Z,3.88
2022-09-14T16:39:05.843Z,0.93
2022-09-14T16:41:33.327Z,2.53
2022-09-14T16:44:02.373Z,3.60
2022-09-14T16:46:31.067Z,2.60
2022-09-14T16:49:01.543Z,5.38
2022-09-14T16:51:30.571Z,3.35
2022-09-14T16:53:59.484Z,6.13
2022-09-14T16:56:29.412Z,4.78
2022-09-14T16:58:57.114Z,3.15
2022-09-14T17:01:26.954Z,0.82
2022-09-14T17:03:56.795Z,1.70
2022-09-14T17:06:29.111Z,2.33
2022-09-14T17:09:02.091Z,1.55
2022-09-14T17:11:30.491Z,4.60
2022-09-14T17:13:57.417Z,3.72
2022-09-14T17:16:26.141Z,3.13
2022-09-14T17:18:54.950Z,1.27
2022-09-14T17:21:24.102Z,3.60
2022-09-14T17:23:50.928Z,5.70
2022-09-14T17:26:19.322Z,3.97
2022-09-14T17:28:49.653Z,3.15
2022-09-14T17:31:22.416Z,3.22
2022-09-14T17:33:49.660Z,4.30
2022-09-14T17:36:16.735Z,2.88
2022-09-14T17:38:44.151Z,3.10
2022-09-14T17:41:15.200Z,1.48
2022-09-14T17:43:42.877Z,2.67
2022-09-14T17:46:14.378Z,12.95
2022-09-14T17:48:42.732Z,3.70
2022-09-14T17:51:17.468Z,1.73
2022-09-14T17:53:45.666Z,4.38
2022-09-14T17:56:15.124Z,6.22
2022-09-14T17:58:42.546Z,6.35
2022-09-14T18:01:12.154Z,5.72
2022-09-14T18:03:40.766Z,6.35
2022-09-14T18:06:10.200Z,7.65
2022-09-14T18:08:38.623Z,10.32
2022-09-14T18:11:24.063Z,10.60
2022-09-14T18:13:51.611Z,11.18
2022-09-14T18:16:20.267Z,7.75
2022-09-14T18:18:47.721Z,8.82
2022-09-14T18:21:16.903Z,7.65
2022-09-14T18:23:43.945Z,10.32
2022-09-14T18:26:10.771Z,11.50
2022-09-14T18:28:37.613Z,10.82
2022-09-14T18:31:07.146Z,4.93
2022-09-14T18:33:34.413Z,3.92
2022-09-14T18:36:01.155Z,5.30
2022-09-14T18:38:29.119Z,8.75
2022-09-14T18:41:02.051Z,5.30
2022-09-14T18:43:28.695Z,3.65
2022-09-14T18:45:55.592Z,7.72
2022-09-14T18:48:22.595Z,4.97
2022-09-14T18:50:49.289Z,3.58
2022-09-14T18:53:16.126Z,4.72
2022-09-14T18:55:43.072Z,4.05
2022-09-14T18:58:09.776Z,5.80
2022-09-14T19:00:37.403Z,10.02
2022-09-14T19:03:04.707Z,9.05
2022-09-14T19:05:31.924Z,10.65
2022-09-14T19:07:58.763Z,4.47
2022-09-14T19:10:26.066Z,7.63
2022-09-14T19:12:53.298Z,3.60
2022-09-14T19:15:20.251Z,6.00
2022-09-14T19:17:46.872Z,4.45
2022-09-14T19:20:13.738Z,3.20
2022-09-14T19:22:40.646Z,7.45
2022-09-14T19:25:07.654Z,8.20
2022-09-14T19:27:34.499Z,10.35
2022-09-14T19:30:01.537Z,5.90
2022-09-14T19:32:28.206Z,8.50
2022-09-14T19:34:55.319Z,5.30
2022-09-14T19:37:22.533Z,3.63
2022-09-14T19:39:49.354Z,7.15
2022-09-14T19:42:16.218Z,9.00
2022-09-14T19:44:42.892Z,3.25
2022-09-14T19:47:09.548Z,1.73
2022-09-14T19:49:36.340Z,4.88
2022-09-14T19:52:03.716Z,0.93
2022-09-14T19:54:30.472Z,2.60
2022-09-14T19:56:57.513Z,1.58
2022-09-14T19:59:24.353Z,1.42
2022-09-14T20:01:51.200Z,2.67
2022-09-14T20:04:22.635Z,2.72
2022-09-14T20:06:49.883Z,4.10
2022-09-14T20:09:19.544Z,4.53
2022-09-14T20:11:49.510Z,4.10
2022-09-14T20:14:20.124Z,4.13
2022-09-14T20:16:53.899Z,6.35
2022-09-14T20:19:23.029Z,7.57
2022-09-14T20:21:51.136Z,5.85
2022-09-14T20:24:26.384Z,3.63
2022-09-14T20:26:59.409Z,4.90
2022-09-14T20:29:30.666Z,2.35
2022-09-14T20:31:58.657Z,3.45
2022-09-14T20:34:25.446Z,6.75
2022-09-14T20:36:53.436Z,7.05
2022-09-14T20:39:22.304Z,5.38
2022-09-14T20:41:49.537Z,4.25
2022-09-14T20:44:17.138Z,7.07
2022-09-14T20:46:45.176Z,5.78
2022-09-14T20:49:14.592Z,5.55
2022-09-14T20:51:42.489Z,6.93
2022-09-14T20:54:13.891Z,5.43
2022-09-14T20:56:41.606Z,6.68
2022-09-14T20:59:16.861Z,7.10
2022-09-14T21:01:46.052Z,7.93
2022-09-14T21:04:18.799Z,4.35
2022-09-14T21:06:49.024Z,4.30
2022-09-14T21:09:18.233Z,3.38
2022-09-14T21:11:46.143Z,3.65
2022-09-14T21:14:14.670Z,7.50
2022-09-14T21:16:43.745Z,5.60
2022-09-14T21:19:19.618Z,11.07
2022-09-14T21:21:47.361Z,5.85
2022-09-14T21:24:15.083Z,12.88
2022-09-14T21:26:43.264Z,6.50
2022-09-14T21:29:14.182Z,5.88
2022-09-14T21:31:41.404Z,5.63
2022-09-14T21:34:10.374Z,5.93
2022-09-14T21:36:43.004Z,4.13
2022-09-14T21:39:13.619Z,9.38
2022-09-14T21:41:42.567Z,6.03
2022-09-14T21:44:09.365Z,7.28
2022-09-14T21:46:37.865Z,6.75
2022-09-14T21:51:49.249Z,5.97
2022-09-14T21:54:16.262Z,7.53
2022-09-14T21:56:45.428Z,2.55
2022-09-14T21:59:18.247Z,5.05
2022-09-14T22:01:45.703Z,6.10
2022-09-14T22:04:15.579Z,3.58
2022-09-14T22:06:44.578Z,3.88
2022-09-14T22:09:13.135Z,6.93
2022-09-14T22:11:40.099Z,5.10
2022-09-14T22:14:10.918Z,3.83
2022-09-14T22:16:38.698Z,5.10
2022-09-14T22:19:08.962Z,5.72
2022-09-14T22:21:37.990Z,5.47
2022-09-14T22:24:08.168Z,2.63
2022-09-14T22:26:35.579Z,5.32
2022-09-14T22:29:02.527Z,6.88
2022-09-14T22:31:30.068Z,4.50
2022-09-14T22:33:57.858Z,9.23
2022-09-14T22:36:25.811Z,7.63
2022-09-14T22:38:57.106Z,6.07
2022-09-14T22:41:26.125Z,5.07
2022-09-14T22:43:53.559Z,3.63
2022-09-14T22:46:21.199Z,7.80
2022-09-14T22:48:48.853Z,5.18
2022-09-14T22:51:18.022Z,1.90
2022-09-14T22:53:45.101Z,4.00
2022-09-14T22:56:25.199Z,3.17
2022-09-14T22:58:52.895Z,5.55
2022-09-14T23:01:25.343Z,4.43
2022-09-14T23:03:58.445Z,6.22
2022-09-14T23:06:34.622Z,2.63
2022-09-14T23:09:01.866Z,4.65
2022-09-14T23:11:29.155Z,7.80
2022-09-14T23:13:56.160Z,2.72
2022-09-14T23:16:26.565Z,6.90
2022-09-14T23:18:55.791Z,3.40
2022-09-14T23:21:22.931Z,7.13
2022-09-14T23:23:54.071Z,3.75
2022-09-14T23:26:21.479Z,2.40
2022-09-14T23:29:00.221Z,3.03
2022-09-14T23:31:29.014Z,5.05
2022-09-14T23:33:57.991Z,6.75
2022-09-14T23:36:25.040Z,6.28
2022-09-14T23:38:52.403Z,5.18
2022-09-14T23:41:21.069Z,4.93
2022-09-14T23:43:48.211Z,7.32
2022-09-14T23:46:15.984Z,6.93
2022-09-14T23:48:42.952Z,6.55
2022-09-14T23:51:10.975Z,7.38
2022-09-14T23:53:38.788Z,6.07
2022-09-14T23:56:06.495Z,3.97
2022-09-14T23:58:33.371Z,5.93
